Time;durP1;ratioP1;P1;durP2;ratioP2;P2;SDS_P1;SDS_P2;PMS_P1;PMS_P2;Temp;Humidity;BMP_temperature;BMP_pressure;BME280_temperature;BME280_humidity;BME280_pressure;Samples;Min_cycle;Max_cycle;Signal;HPM_P1;HPM_P2
2021/12/08 00:00:06;;;;;;;;;0.00;0.00;;;;;;;;5054295;28;45556;-78
2021/12/08 00:02:32;;;;;;;;;2.00;1.00;;;;;;;;5054324;28;45437;-77
2021/12/08 00:04:57;;;;;;;;;1.00;1.00;;;;;;;;5054808;28;45451;-79
2021/12/08 00:07:22;;;;;;;;;0.50;0.00;;;;;;;;5054051;28;45427;-78
2021/12/08 00:10:00;;;;;;;;;0.00;0.00;;;;;;;;5056450;28;45386;-78
2021/12/08 00:15:33;;;;;;;;;0.50;0.25;;;;;;;;4987972;28;45456;-77
2021/12/08 00:17:59;;;;;;;;;2.00;1.00;;;;;;;;4993537;28;46457;-77
2021/12/08 00:20:28;;;;;;;;;1.00;1.00;;;;;;;;4993147;28;45503;-76
2021/12/08 00:22:53;;;;;;;;;1.50;1.00;;;;;;;;4993129;28;45358;-78
2021/12/08 00:25:19;;;;;;;;;2.00;0.00;;;;;;;;4994044;28;45280;-78
2021/12/08 00:27:44;;;;;;;;;1.00;0.00;;;;;;;;4994790;28;47559;-78
2021/12/08 00:30:09;;;;;;;;;0.25;0.00;;;;;;;;4994319;28;45558;-78
2021/12/08 00:32:36;;;;;;;;;1.50;0.00;;;;;;;;4995807;28;45309;-77
2021/12/08 00:35:02;;;;;;;;;3.00;1.00;;;;;;;;5002375;28;45371;-78
2021/12/08 00:37:28;;;;;;;;;0.50;0.00;;;;;;;;4997410;28;45336;-78
2021/12/08 00:39:53;;;;;;;;;1.00;1.00;;;;;;;;5002686;28;44903;-77
2021/12/08 00:42:19;;;;;;;;;1.00;1.00;;;;;;;;5004466;28;45350;-78
2021/12/08 00:44:44;;;;;;;;;3.50;0.00;;;;;;;;5005356;28;45617;-77
2021/12/08 00:47:10;;;;;;;;;3.75;1.25;;;;;;;;5041039;28;45051;-78
2021/12/08 00:49:35;;;;;;;;;1.00;0.00;;;;;;;;5062657;28;45452;-78
2021/12/08 00:52:00;;;;;;;;;2.50;1.25;;;;;;;;5045476;28;45552;-77
2021/12/08 00:54:25;;;;;;;;;5.25;2.00;;;;;;;;5060614;28;45544;-79
2021/12/08 00:56:51;;;;;;;;;1.00;0.00;;;;;;;;5061426;28;46669;-79
2021/12/08 00:59:16;;;;;;;;;2.00;0.50;;;;;;;;5063006;28;45301;-78
2021/12/08 01:01:41;;;;;;;;;0.00;0.00;;;;;;;;5060651;28;45307;-79
2021/12/08 01:04:09;;;;;;;;;0.00;0.00;;;;;;;;5044898;28;45353;-78
2021/12/08 01:06:35;;;;;;;;;0.50;0.50;;;;;;;;5055616;28;45419;-76
2021/12/08 01:09:00;;;;;;;;;0.50;0.00;;;;;;;;5052491;28;45259;-77
2021/12/08 01:11:26;;;;;;;;;1.25;0.50;;;;;;;;5053811;28;45269;-78
2021/12/08 01:13:51;;;;;;;;;0.75;0.75;;;;;;;;5053709;28;45359;-77
2021/12/08 01:16:18;;;;;;;;;0.75;0.25;;;;;;;;5054383;28;46348;-78
2021/12/08 01:18:43;;;;;;;;;0.25;0.25;;;;;;;;5054477;28;45524;-79
2021/12/08 01:21:10;;;;;;;;;2.00;1.00;;;;;;;;5053375;28;45861;-77
2021/12/08 01:23:35;;;;;;;;;0.00;0.00;;;;;;;;5056236;28;45293;-79
2021/12/08 01:26:02;;;;;;;;;3.00;0.00;;;;;;;;5057217;28;45441;-77
2021/12/08 01:28:28;;;;;;;;;1.00;1.00;;;;;;;;5039071;28;45331;-78
2021/12/08 01:30:54;;;;;;;;;0.00;0.00;;;;;;;;5057875;28;45438;-78
2021/12/08 01:33:20;;;;;;;;;0.00;0.00;;;;;;;;5056896;28;45511;-78
2021/12/08 01:35:45;;;;;;;;;0.75;0.75;;;;;;;;5056509;28;46287;-77
2021/12/08 01:38:11;;;;;;;;;0.00;0.00;;;;;;;;5056421;28;45496;-78
2021/12/08 01:40:36;;;;;;;;;0.00;0.00;;;;;;;;5057157;28;45684;-78
2021/12/08 01:43:03;;;;;;;;;0.00;0.00;;;;;;;;5059022;28;45396;-78
2021/12/08 01:48:15;;;;;;;;;1.50;1.50;;;;;;;;5055886;28;45391;-78
2021/12/08 01:50:41;;;;;;;;;0.00;0.00;;;;;;;;5056387;28;45434;-78
2021/12/08 01:53:07;;;;;;;;;0.00;0.00;;;;;;;;5056248;28;45496;-78
2021/12/08 01:55:33;;;;;;;;;1.25;1.00;;;;;;;;5055570;28;46347;-78
2021/12/08 01:57:58;;;;;;;;;0.00;0.00;;;;;;;;5057425;28;45401;-76
2021/12/08 02:00:29;;;;;;;;;0.00;0.00;;;;;;;;5036943;28;45572;-78
2021/12/08 02:02:54;;;;;;;;;0.50;0.50;;;;;;;;5055638;28;45505;-76
2021/12/08 02:05:19;;;;;;;;;1.00;0.00;;;;;;;;5055991;28;45443;-79
2021/12/08 02:07:45;;;;;;;;;1.00;0.00;;;;;;;;5055896;28;45416;-78
2021/12/08 02:10:11;;;;;;;;;1.00;1.00;;;;;;;;5057913;28;45639;-78
2021/12/08 02:12:40;;;;;;;;;0.75;0.00;;;;;;;;5055523;28;45295;-78
2021/12/08 02:15:06;;;;;;;;;0.00;0.00;;;;;;;;5053745;28;45361;-78
2021/12/08 02:17:31;;;;;;;;;0.75;0.75;;;;;;;;5055741;28;45639;-78
2021/12/08 02:19:56;;;;;;;;;2.00;0.00;;;;;;;;5038610;28;45441;-77
2021/12/08 02:22:21;;;;;;;;;1.00;1.00;;;;;;;;5056211;28;45305;-78
2021/12/08 02:24:47;;;;;;;;;0.00;0.00;;;;;;;;5057546;28;45442;-78
2021/12/08 02:27:12;;;;;;;;;0.00;0.00;;;;;;;;5055299;28;45417;-78
2021/12/08 02:29:49;;;;;;;;;0.25;0.00;;;;;;;;5055796;28;45517;-78
2021/12/08 02:48:26;;;;;;;;;2.50;1.25;;;;;;;;5054188;28;45273;-77
2021/12/08 02:50:51;;;;;;;;;2.00;0.75;;;;;;;;5053608;28;45250;-77
2021/12/08 02:53:16;;;;;;;;;2.00;1.00;;;;;;;;5055579;28;45349;-78
2021/12/08 02:55:42;;;;;;;;;0.25;0.25;;;;;;;;5036240;28;47757;-77
2021/12/08 02:58:08;;;;;;;;;1.25;1.25;;;;;;;;5056924;28;45218;-77
2021/12/08 03:00:36;;;;;;;;;1.00;1.00;;;;;;;;5055239;28;45481;-77
2021/12/08 03:03:03;;;;;;;;;3.00;0.75;;;;;;;;5037132;28;45735;-79
2021/12/08 03:05:29;;;;;;;;;0.50;0.50;;;;;;;;5055205;28;46374;-78
2021/12/08 03:07:54;;;;;;;;;1.00;0.00;;;;;;;;5055303;28;45672;-77
2021/12/08 03:10:22;;;;;;;;;0.00;0.00;;;;;;;;5056091;28;45391;-78
2021/12/08 03:12:47;;;;;;;;;0.00;0.00;;;;;;;;5055109;28;45513;-78
2021/12/08 03:15:13;;;;;;;;;1.50;1.00;;;;;;;;5054476;28;46095;-78
2021/12/08 03:17:39;;;;;;;;;0.00;0.00;;;;;;;;5054676;28;45610;-78
2021/12/08 03:20:06;;;;;;;;;0.25;0.25;;;;;;;;5053669;28;45340;-78
2021/12/08 03:22:34;;;;;;;;;1.00;0.00;;;;;;;;5054974;28;45496;-78
2021/12/08 03:25:01;;;;;;;;;0.00;0.00;;;;;;;;5056910;28;46232;-78
2021/12/08 03:27:33;;;;;;;;;0.00;0.00;;;;;;;;5053078;28;45419;-78
2021/12/08 03:30:11;;;;;;;;;1.50;1.00;;;;;;;;5048441;28;45873;-78
2021/12/08 03:32:39;;;;;;;;;1.00;0.00;;;;;;;;5054488;28;45230;-79
2021/12/08 03:35:06;;;;;;;;;0.50;0.50;;;;;;;;5054616;28;46087;-79
2021/12/08 03:37:33;;;;;;;;;0.00;0.00;;;;;;;;5054768;28;45304;-78
2021/12/08 03:39:59;;;;;;;;;0.75;0.50;;;;;;;;5056326;28;45459;-78
2021/12/08 03:42:26;;;;;;;;;1.50;1.50;;;;;;;;5054687;28;45361;-79
2021/12/08 03:44:54;;;;;;;;;0.00;0.00;;;;;;;;5053886;28;46288;-78
2021/12/08 03:47:26;;;;;;;;;1.00;1.00;;;;;;;;5054364;28;45404;-78
2021/12/08 03:49:52;;;;;;;;;0.00;0.00;;;;;;;;5054334;28;45443;-78
2021/12/08 03:52:17;;;;;;;;;0.75;0.75;;;;;;;;5055055;28;45290;-78
2021/12/08 03:54:43;;;;;;;;;1.75;0.00;;;;;;;;5055406;28;46136;-79
2021/12/08 03:57:08;;;;;;;;;0.50;0.50;;;;;;;;5054074;28;45490;-78
2021/12/08 03:59:33;;;;;;;;;0.00;0.00;;;;;;;;5054171;28;45459;-78
2021/12/08 04:01:58;;;;;;;;;0.25;0.25;;;;;;;;5035491;28;45469;-78
2021/12/08 04:04:27;;;;;;;;;2.00;0.00;;;;;;;;5054740;28;46577;-79
2021/12/08 04:06:53;;;;;;;;;2.75;0.00;;;;;;;;5054481;28;45349;-78
2021/12/08 04:11:55;;;;;;;;;2.00;0.75;;;;;;;;5053916;28;45570;-78
2021/12/08 04:14:22;;;;;;;;;0.50;0.00;;;;;;;;5053631;28;46172;-79
2021/12/08 04:16:50;;;;;;;;;0.00;0.00;;;;;;;;5053735;28;45444;-78
2021/12/08 04:19:16;;;;;;;;;0.50;0.50;;;;;;;;5055013;28;45301;-78
2021/12/08 04:21:42;;;;;;;;;2.00;1.00;;;;;;;;5055251;28;45419;-78
2021/12/08 04:24:08;;;;;;;;;1.50;1.00;;;;;;;;5053597;28;46259;-79
2021/12/08 04:26:44;;;;;;;;;1.00;1.00;;;;;;;;5053781;28;45465;-78
2021/12/08 04:29:11;;;;;;;;;1.25;0.00;;;;;;;;5053694;28;45373;-78
2021/12/08 04:31:38;;;;;;;;;0.75;0.75;;;;;;;;5018930;28;45658;-78
2021/12/08 04:34:05;;;;;;;;;1.25;1.25;;;;;;;;5051572;28;45585;-77
2021/12/08 04:36:37;;;;;;;;;1.00;1.00;;;;;;;;5053702;28;45277;-77
2021/12/08 04:39:08;;;;;;;;;0.00;0.00;;;;;;;;5053230;28;45398;-77
2021/12/08 04:41:39;;;;;;;;;1.50;0.25;;;;;;;;5053100;28;45374;-78
2021/12/08 04:52:13;;;;;;;;;2.00;0.50;;;;;;;;5055333;28;45388;-78
2021/12/08 05:08:34;;;;;;;;;0.25;0.25;;;;;;;;4930691;28;45646;-78
2021/12/08 05:11:00;;;;;;;;;2.75;1.00;;;;;;;;4930840;28;45703;-79
2021/12/08 05:13:25;;;;;;;;;1.50;1.00;;;;;;;;4932323;28;45599;-78
2021/12/08 05:15:53;;;;;;;;;1.00;1.00;;;;;;;;4932559;28;45450;-79
2021/12/08 05:18:20;;;;;;;;;3.25;1.75;;;;;;;;4930830;28;45419;-78
2021/12/08 05:20:49;;;;;;;;;1.00;1.00;;;;;;;;4930911;28;45494;-78
2021/12/08 05:23:23;;;;;;;;;1.00;0.00;;;;;;;;4932626;28;45418;-78
2021/12/08 05:25:49;;;;;;;;;1.75;1.25;;;;;;;;4931744;28;45729;-77
2021/12/08 05:28:17;;;;;;;;;2.25;1.00;;;;;;;;4932490;28;45450;-77
2021/12/08 05:30:45;;;;;;;;;2.25;1.00;;;;;;;;4931352;28;45464;-77
2021/12/08 05:33:12;;;;;;;;;1.00;0.00;;;;;;;;4930452;28;45649;-79
2021/12/08 05:35:39;;;;;;;;;0.00;0.00;;;;;;;;4931712;28;46775;-78
2021/12/08 05:38:04;;;;;;;;;2.00;1.00;;;;;;;;4931825;28;45535;-78
2021/12/08 05:40:34;;;;;;;;;1.25;1.25;;;;;;;;4970217;28;45643;-78
2021/12/08 05:42:59;;;;;;;;;1.00;1.00;;;;;;;;4975616;28;45313;-78
2021/12/08 05:45:25;;;;;;;;;0.75;0.75;;;;;;;;5014319;28;45452;-78
2021/12/08 05:47:51;;;;;;;;;3.25;1.00;;;;;;;;5032091;28;45656;-78
2021/12/08 05:50:19;;;;;;;;;1.00;1.00;;;;;;;;5031680;28;45367;-78
2021/12/08 05:52:45;;;;;;;;;1.00;1.00;;;;;;;;5031777;28;45334;-78
2021/12/08 05:55:10;;;;;;;;;1.75;1.00;;;;;;;;5032522;28;46810;-79
2021/12/08 05:57:37;;;;;;;;;0.00;0.00;;;;;;;;5030787;28;45439;-78
2021/12/08 06:00:07;;;;;;;;;1.00;0.00;;;;;;;;5029752;28;45401;-77
2021/12/08 06:02:35;;;;;;;;;2.75;1.00;;;;;;;;5030748;28;45551;-78
2021/12/08 06:05:00;;;;;;;;;1.00;1.00;;;;;;;;5030259;28;47312;-78
2021/12/08 06:07:26;;;;;;;;;0.00;0.00;;;;;;;;5032563;28;45433;-84
2021/12/08 06:09:53;;;;;;;;;3.00;1.00;;;;;;;;5045216;28;45333;-87
2021/12/08 06:12:19;;;;;;;;;0.00;0.00;;;;;;;;5044770;28;45419;-89
2021/12/08 06:14:44;;;;;;;;;0.00;0.00;;;;;;;;5039017;28;46297;-86
2021/12/08 06:17:12;;;;;;;;;1.50;0.50;;;;;;;;5039113;28;45486;-84
2021/12/08 06:19:38;;;;;;;;;0.75;0.75;;;;;;;;5039167;28;45352;-87
2021/12/08 06:22:04;;;;;;;;;3.50;1.00;;;;;;;;5038313;28;45352;-85
2021/12/08 06:24:29;;;;;;;;;2.00;0.00;;;;;;;;5033738;28;46633;-79
2021/12/08 06:26:58;;;;;;;;;1.00;1.00;;;;;;;;5034628;28;45361;-81
2021/12/08 06:29:24;;;;;;;;;1.00;0.00;;;;;;;;5034647;28;45553;-80
2021/12/08 06:31:52;;;;;;;;;1.00;1.00;;;;;;;;5034571;28;45499;-79
2021/12/08 06:34:17;;;;;;;;;1.50;1.50;;;;;;;;5035298;28;46416;-83
2021/12/08 06:36:45;;;;;;;;;0.25;0.25;;;;;;;;5017770;28;45579;-80
2021/12/08 06:39:13;;;;;;;;;3.00;1.00;;;;;;;;5044836;28;45468;-81
2021/12/08 06:41:40;;;;;;;;;0.50;0.50;;;;;;;;5055226;28;45279;-81
2021/12/08 06:44:08;;;;;;;;;4.00;1.00;;;;;;;;5053607;28;46347;-82
2021/12/08 06:46:34;;;;;;;;;2.25;0.25;;;;;;;;5054670;28;45352;-81
2021/12/08 06:49:02;;;;;;;;;0.50;0.50;;;;;;;;5057015;28;45458;-81
2021/12/08 06:51:45;;;;;;;;;0.00;0.00;;;;;;;;5054361;28;45462;-81
2021/12/08 06:54:18;;;;;;;;;1.00;1.00;;;;;;;;5053898;28;45681;-80
2021/12/08 06:56:48;;;;;;;;;1.75;0.25;;;;;;;;5053347;28;45534;-81
2021/12/08 06:59:17;;;;;;;;;1.00;1.00;;;;;;;;5053888;28;45376;-81
2021/12/08 07:01:54;;;;;;;;;1.00;1.00;;;;;;;;5055146;28;45379;-82
2021/12/08 07:04:34;;;;;;;;;2.25;2.25;;;;;;;;5055657;28;46290;-81
2021/12/08 07:07:00;;;;;;;;;2.00;2.00;;;;;;;;5055517;28;45384;-80
2021/12/08 07:09:26;;;;;;;;;2.50;2.00;;;;;;;;5055004;28;45387;-80
2021/12/08 07:11:52;;;;;;;;;2.75;1.25;;;;;;;;5053167;28;45488;-80
2021/12/08 07:14:18;;;;;;;;;2.75;1.00;;;;;;;;5052978;28;46595;-81
2021/12/08 07:16:45;;;;;;;;;1.50;1.00;;;;;;;;5054097;28;45433;-80
2021/12/08 07:19:22;;;;;;;;;6.00;2.50;;;;;;;;5055537;28;45553;-81
2021/12/08 07:21:48;;;;;;;;;2.00;1.00;;;;;;;;5036790;28;45356;-79
2021/12/08 07:24:13;;;;;;;;;1.75;1.75;;;;;;;;5053574;28;46538;-80
2021/12/08 07:26:39;;;;;;;;;2.00;1.00;;;;;;;;5053308;28;45370;-81
2021/12/08 07:29:10;;;;;;;;;2.75;1.25;;;;;;;;5056410;28;45256;-80
2021/12/08 07:31:38;;;;;;;;;2.00;0.50;;;;;;;;5056512;28;45345;-80
2021/12/08 07:34:08;;;;;;;;;1.00;1.00;;;;;;;;5060070;28;45657;-82
2021/12/08 07:36:38;;;;;;;;;7.75;1.00;;;;;;;;5055885;28;45321;-81
2021/12/08 07:39:08;;;;;;;;;1.50;1.50;;;;;;;;5056443;28;47964;-81
2021/12/08 07:41:35;;;;;;;;;7.50;1.75;;;;;;;;5055361;28;45403;-81
2021/12/08 07:44:04;;;;;;;;;4.25;2.00;;;;;;;;5022971;28;47015;-81
2021/12/08 07:46:41;;;;;;;;;3.00;2.00;;;;;;;;5035791;28;45398;-81
2021/12/08 07:49:08;;;;;;;;;2.50;1.50;;;;;;;;5033641;28;45591;-81
2021/12/08 07:51:37;;;;;;;;;1.00;0.00;;;;;;;;5055007;28;45360;-81
2021/12/08 07:54:04;;;;;;;;;3.00;2.00;;;;;;;;5055183;28;47217;-82
2021/12/08 07:56:32;;;;;;;;;0.50;0.00;;;;;;;;5053869;28;45321;-80
2021/12/08 07:59:00;;;;;;;;;3.25;2.25;;;;;;;;5052256;28;45446;-80
2021/12/08 08:01:36;;;;;;;;;7.00;4.00;;;;;;;;5056743;28;45439;-80
2021/12/08 08:04:03;;;;;;;;;3.50;2.00;;;;;;;;5213559;22;46377;-80
2021/12/08 08:06:31;;;;;;;;;3.75;2.25;;;;;;;;5040154;28;45354;-79
2021/12/08 08:08:56;;;;;;;;;1.75;1.75;;;;;;;;5051130;28;45313;-80
2021/12/08 08:11:31;;;;;;;;;2.00;1.00;;;;;;;;5061329;28;45215;-79
2021/12/08 08:13:56;;;;;;;;;2.75;2.00;;;;;;;;5072243;28;46263;-81
2021/12/08 08:16:23;;;;;;;;;3.50;1.00;;;;;;;;5061030;28;45369;-80
2021/12/08 08:18:55;;;;;;;;;2.50;1.00;;;;;;;;5058515;28;45448;-81
2021/12/08 08:21:22;;;;;;;;;3.00;1.75;;;;;;;;5038562;28;45533;-81
2021/12/08 08:23:47;;;;;;;;;1.50;0.50;;;;;;;;5047708;28;47119;-81
2021/12/08 08:26:13;;;;;;;;;2.75;1.00;;;;;;;;5054173;28;45368;-79
2021/12/08 08:28:39;;;;;;;;;1.00;1.00;;;;;;;;5052638;28;45486;-82
2021/12/08 08:31:15;;;;;;;;;4.25;2.25;;;;;;;;5055406;28;45385;-80
2021/12/08 08:33:41;;;;;;;;;3.00;1.50;;;;;;;;5058603;28;48463;-81
2021/12/08 08:36:09;;;;;;;;;2.50;2.50;;;;;;;;5053759;28;45491;-81
2021/12/08 08:38:37;;;;;;;;;1.00;1.00;;;;;;;;5051955;28;45533;-81
2021/12/08 08:41:09;;;;;;;;;3.75;1.50;;;;;;;;5056194;28;45439;-81
2021/12/08 08:43:34;;;;;;;;;2.00;0.00;;;;;;;;5047515;28;45410;-82
2021/12/08 08:46:04;;;;;;;;;2.25;1.25;;;;;;;;5053656;28;45458;-80
2021/12/08 08:48:31;;;;;;;;;2.00;2.00;;;;;;;;5033079;28;45454;-80
2021/12/08 08:50:59;;;;;;;;;2.00;2.00;;;;;;;;5053023;28;45304;-80
2021/12/08 08:53:27;;;;;;;;;2.50;1.00;;;;;;;;5033495;28;47447;-79
2021/12/08 08:56:00;;;;;;;;;9.00;3.00;;;;;;;;5051336;28;45507;-80
2021/12/08 08:58:26;;;;;;;;;3.00;2.00;;;;;;;;5052979;28;45624;-79
2021/12/08 09:01:02;;;;;;;;;1.50;1.50;;;;;;;;5055330;28;46698;-81
2021/12/08 09:03:34;;;;;;;;;2.00;2.00;;;;;;;;5051813;28;46666;-80
2021/12/08 09:06:04;;;;;;;;;1.50;1.00;;;;;;;;5045851;28;45339;-81
2021/12/08 09:08:32;;;;;;;;;2.00;1.50;;;;;;;;5052214;28;45550;-79
2021/12/08 09:10:57;;;;;;;;;4.25;2.50;;;;;;;;5051642;28;45281;-80
2021/12/08 09:13:28;;;;;;;;;2.00;2.00;;;;;;;;5052842;28;46557;-79
2021/12/08 09:16:02;;;;;;;;;6.00;2.00;;;;;;;;5056347;28;45554;-81
2021/12/08 09:18:35;;;;;;;;;3.00;3.00;;;;;;;;5055301;28;45374;-81
2021/12/08 09:21:13;;;;;;;;;7.00;2.75;;;;;;;;5052217;28;45244;-80
2021/12/08 09:23:53;;;;;;;;;4.00;3.00;;;;;;;;5036011;28;48788;-80
2021/12/08 09:26:20;;;;;;;;;4.00;2.25;;;;;;;;5052205;28;45517;-80
2021/12/08 09:28:51;;;;;;;;;3.25;2.00;;;;;;;;5051258;28;45356;-79
2021/12/08 09:31:28;;;;;;;;;4.00;3.00;;;;;;;;5054251;28;45418;-80
2021/12/08 09:34:16;;;;;;;;;1.00;1.00;;;;;;;;5055013;28;46317;-81
2021/12/08 09:36:47;;;;;;;;;3.50;1.50;;;;;;;;5037505;28;45354;-78
2021/12/08 09:39:17;;;;;;;;;3.75;2.75;;;;;;;;5045114;28;45514;-79
2021/12/08 09:41:47;;;;;;;;;2.75;2.00;;;;;;;;5051980;28;45387;-79
2021/12/08 09:44:21;;;;;;;;;2.00;2.00;;;;;;;;5058778;28;47342;-80
2021/12/08 09:46:48;;;;;;;;;3.25;3.25;;;;;;;;5057355;28;45448;-80
2021/12/08 09:49:15;;;;;;;;;4.25;2.75;;;;;;;;5059812;28;45217;-79
2021/12/08 09:51:41;;;;;;;;;3.50;2.75;;;;;;;;5059085;28;45556;-80
2021/12/08 09:54:06;;;;;;;;;2.00;2.00;;;;;;;;5039928;28;48110;-79
2021/12/08 09:56:34;;;;;;;;;2.00;1.00;;;;;;;;5037971;28;45626;-80
2021/12/08 09:59:01;;;;;;;;;2.75;2.75;;;;;;;;5058905;28;45467;-80
2021/12/08 10:01:27;;;;;;;;;2.00;1.00;;;;;;;;5061058;28;45488;-80
2021/12/08 10:03:55;;;;;;;;;2.75;2.00;;;;;;;;5052773;28;46833;-79
2021/12/08 10:06:21;;;;;;;;;2.00;2.00;;;;;;;;5054896;28;45482;-79
2021/12/08 10:08:47;;;;;;;;;4.00;1.00;;;;;;;;5055532;28;45612;-79
2021/12/08 10:11:12;;;;;;;;;2.75;1.00;;;;;;;;5054823;28;45501;-80
2021/12/08 10:13:38;;;;;;;;;1.00;1.00;;;;;;;;5054844;28;45673;-79
2021/12/08 10:16:04;;;;;;;;;0.50;0.00;;;;;;;;5067281;28;45352;-79
2021/12/08 10:18:29;;;;;;;;;3.75;1.75;;;;;;;;5059664;28;45362;-78
2021/12/08 10:20:55;;;;;;;;;1.00;1.00;;;;;;;;5056209;28;45338;-80
2021/12/08 10:27:00;;;;;;;;;3.00;3.00;;;;;;;;5054028;28;45345;-81
2021/12/08 10:29:47;;;;;;;;;7.50;2.00;;;;;;;;5035230;28;45686;-80
2021/12/08 10:32:19;;;;;;;;;2.50;1.25;;;;;;;;5053757;28;45465;-79
2021/12/08 10:34:53;;;;;;;;;0.00;0.00;;;;;;;;5054389;28;45309;-80
2021/12/08 10:37:21;;;;;;;;;1.75;1.75;;;;;;;;5055153;28;49308;-80
2021/12/08 10:39:54;;;;;;;;;2.50;1.00;;;;;;;;5057557;28;45284;-79
2021/12/08 10:42:41;;;;;;;;;1.75;1.75;;;;;;;;5058808;28;45505;-79
2021/12/08 10:48:47;;;;;;;;;1.50;0.00;;;;;;;;5059478;28;45426;-79
2021/12/08 10:57:39;;;;;;;;;1.25;1.25;;;;;;;;5052612;28;45812;-80
2021/12/08 11:03:23;;;;;;;;;1.75;1.25;;;;;;;;5051422;28;45563;-79
2021/12/08 11:08:56;;;;;;;;;2.25;1.25;;;;;;;;5056817;28;45429;-78
2021/12/08 11:18:11;;;;;;;;;1.75;1.00;;;;;;;;4894337;29;45806;-78
2021/12/08 11:30:34;;;;;;;;;1.25;1.00;;;;;;;;4880915;29;45659;-78
2021/12/08 11:53:02;;;;;;;;;5.75;4.00;;;;;;;;5047794;28;45314;-79
2021/12/08 11:55:29;;;;;;;;;0.00;0.00;;;;;;;;5056379;28;46435;-80
2021/12/08 11:57:55;;;;;;;;;3.00;3.00;;;;;;;;5374423;22;45515;-75
2021/12/08 12:00:27;;;;;;;;;3.00;3.00;;;;;;;;5051717;28;45389;-73
2021/12/08 12:02:56;;;;;;;;;4.50;1.00;;;;;;;;5051825;28;45502;-74
2021/12/08 12:05:24;;;;;;;;;1.50;1.50;;;;;;;;5051430;28;47138;-73
2021/12/08 12:07:49;;;;;;;;;2.67;1.00;;;;;;;;5050986;28;45340;-74
2021/12/08 12:10:15;;;;;;;;;1.00;1.00;;;;;;;;5053258;28;45230;-75
2021/12/08 12:12:41;;;;;;;;;0.67;0.67;;;;;;;;5052118;28;45809;-74
2021/12/08 12:15:11;;;;;;;;;5.00;5.00;;;;;;;;5051259;28;45434;-74
2021/12/08 12:17:37;;;;;;;;;1.00;1.00;;;;;;;;5051398;28;45360;-75
2021/12/08 12:20:18;;;;;;;;;2.00;2.00;;;;;;;;5051688;28;45421;-74
2021/12/08 12:23:04;;;;;;;;;1.00;1.00;;;;;;;;5036294;28;45305;-74
2021/12/08 12:25:47;;;;;;;;;1.00;1.00;;;;;;;;5051060;28;46123;-74
2021/12/08 12:28:21;;;;;;;;;2.75;2.00;;;;;;;;5048873;28;45359;-74
2021/12/08 12:31:06;;;;;;;;;0.75;0.75;;;;;;;;5053213;28;45316;-74
2021/12/08 12:33:39;;;;;;;;;1.25;1.00;;;;;;;;5051547;28;45387;-75
2021/12/08 12:36:16;;;;;;;;;4.00;3.00;;;;;;;;5049581;28;47115;-74
2021/12/08 12:38:41;;;;;;;;;0.75;0.75;;;;;;;;5050425;28;45553;-75
2021/12/08 12:41:07;;;;;;;;;0.00;0.00;;;;;;;;5050567;28;45518;-76
2021/12/08 12:43:37;;;;;;;;;0.50;0.50;;;;;;;;5050919;28;45610;-72
2021/12/08 12:46:06;;;;;;;;;2.25;1.75;;;;;;;;5052153;28;46176;-73
2021/12/08 12:48:32;;;;;;;;;4.75;2.25;;;;;;;;5049325;28;45409;-75
2021/12/08 12:51:06;;;;;;;;;1.75;1.75;;;;;;;;5050589;28;45328;-72
2021/12/08 12:53:33;;;;;;;;;4.00;2.75;;;;;;;;5050609;28;45434;-72
2021/12/08 12:55:58;;;;;;;;;1.00;1.00;;;;;;;;5050596;28;47256;-71
2021/12/08 12:58:23;;;;;;;;;2.75;0.00;;;;;;;;5050992;28;45429;-71
2021/12/08 13:01:04;;;;;;;;;1.00;1.00;;;;;;;;5053205;28;45340;-71
2021/12/08 13:03:37;;;;;;;;;2.25;2.25;;;;;;;;5050639;28;45423;-73
2021/12/08 13:06:03;;;;;;;;;5.00;3.75;;;;;;;;5050119;28;47157;-73
2021/12/08 13:08:34;;;;;;;;;2.00;2.00;;;;;;;;5049596;28;45456;-74
2021/12/08 13:11:04;;;;;;;;;1.50;0.00;;;;;;;;5049465;28;45305;-72
2021/12/08 13:13:43;;;;;;;;;6.75;6.75;;;;;;;;5050083;28;45718;-73
2021/12/08 13:16:19;;;;;;;;;3.25;1.50;;;;;;;;5048226;28;45300;-73
2021/12/08 13:19:05;;;;;;;;;2.00;0.75;;;;;;;;5050730;28;45427;-73
2021/12/08 13:21:44;;;;;;;;;3.00;2.00;;;;;;;;5050467;28;45327;-73
2021/12/08 13:24:28;;;;;;;;;3.00;2.00;;;;;;;;5050879;28;45330;-73
2021/12/08 13:27:05;;;;;;;;;1.00;1.00;;;;;;;;5050639;28;47317;-72
2021/12/08 13:29:32;;;;;;;;;1.00;1.00;;;;;;;;5050370;28;45328;-73
2021/12/08 13:32:11;;;;;;;;;1.00;1.00;;;;;;;;5051142;28;45447;-73
2021/12/08 13:34:38;;;;;;;;;0.25;0.25;;;;;;;;5050319;28;45815;-74
2021/12/08 13:37:19;;;;;;;;;2.75;1.00;;;;;;;;5051972;28;45471;-72
2021/12/08 13:39:45;;;;;;;;;3.00;1.00;;;;;;;;5050934;28;45364;-72
2021/12/08 13:42:15;;;;;;;;;3.25;1.00;;;;;;;;5050398;28;45505;-72
2021/12/08 13:44:48;;;;;;;;;1.00;1.00;;;;;;;;5050731;28;45322;-72
2021/12/08 13:47:19;;;;;;;;;3.00;1.75;;;;;;;;5045596;28;45631;-72
2021/12/08 13:49:52;;;;;;;;;3.25;3.25;;;;;;;;5049713;28;45348;-73
2021/12/08 13:52:31;;;;;;;;;2.50;0.00;;;;;;;;5051833;28;45200;-74
2021/12/08 13:55:17;;;;;;;;;0.50;0.50;;;;;;;;5033004;28;45530;-72
2021/12/08 13:57:52;;;;;;;;;1.25;1.25;;;;;;;;5050613;28;46223;-74
2021/12/08 14:00:18;;;;;;;;;2.50;1.00;;;;;;;;5050798;28;45438;-72
2021/12/08 14:02:45;;;;;;;;;2.00;1.00;;;;;;;;5050944;28;45690;-72
2021/12/08 14:05:13;;;;;;;;;3.75;1.75;;;;;;;;5050150;28;45545;-74
2021/12/08 14:07:40;;;;;;;;;2.75;1.00;;;;;;;;5033525;28;45609;-72
2021/12/08 14:10:15;;;;;;;;;1.75;1.75;;;;;;;;5052328;28;45469;-72
2021/12/08 14:12:46;;;;;;;;;0.25;0.25;;;;;;;;5049531;28;45536;-72
2021/12/08 14:15:37;;;;;;;;;1.00;0.00;;;;;;;;5050577;28;45537;-72
2021/12/08 14:18:15;;;;;;;;;0.75;0.75;;;;;;;;5046725;28;46229;-72
2021/12/08 14:20:41;;;;;;;;;1.00;1.00;;;;;;;;5050295;28;45386;-72
2021/12/08 14:23:06;;;;;;;;;3.50;2.00;;;;;;;;5050487;28;45523;-72
2021/12/08 14:25:43;;;;;;;;;3.75;2.25;;;;;;;;5048760;28;45315;-74
2021/12/08 14:28:47;;;;;;;;;1.75;1.75;;;;;;;;5047887;28;46631;-71
2021/12/08 14:31:24;;;;;;;;;3.25;2.00;;;;;;;;4963647;28;45332;-73
2021/12/08 14:34:04;;;;;;;;;3.00;1.00;;;;;;;;4973444;28;45517;-72
2021/12/08 14:36:29;;;;;;;;;2.00;0.25;;;;;;;;4954511;28;45542;-71
2021/12/08 14:38:55;;;;;;;;;2.00;1.00;;;;;;;;4971011;28;45418;-74
2021/12/08 14:41:21;;;;;;;;;0.00;0.00;;;;;;;;4971311;28;45504;-72
2021/12/08 14:43:49;;;;;;;;;2.00;2.00;;;;;;;;4971444;28;45467;-72
2021/12/08 14:46:17;;;;;;;;;2.00;1.00;;;;;;;;4972479;28;45473;-73
2021/12/08 14:48:59;;;;;;;;;1.50;1.00;;;;;;;;4971515;28;46354;-72
2021/12/08 14:51:25;;;;;;;;;1.75;1.00;;;;;;;;4970455;28;45533;-72
2021/12/08 14:53:50;;;;;;;;;2.00;2.00;;;;;;;;4971320;28;45437;-73
2021/12/08 14:56:15;;;;;;;;;0.25;0.25;;;;;;;;4971133;28;45504;-71
2021/12/08 14:58:40;;;;;;;;;2.00;1.00;;;;;;;;4970621;28;47572;-72
2021/12/08 15:01:06;;;;;;;;;3.00;1.00;;;;;;;;4978322;28;45385;-72
2021/12/08 15:03:38;;;;;;;;;3.00;1.25;;;;;;;;5046719;28;47629;-74
2021/12/08 15:06:03;;;;;;;;;2.00;1.00;;;;;;;;5052761;28;45535;-72
2021/12/08 15:08:28;;;;;;;;;0.00;0.00;;;;;;;;5051426;28;47031;-72
2021/12/08 15:10:53;;;;;;;;;1.50;1.50;;;;;;;;5053514;28;45271;-73
2021/12/08 15:13:19;;;;;;;;;1.75;1.00;;;;;;;;5054411;28;45299;-72
2021/12/08 15:15:45;;;;;;;;;3.00;3.00;;;;;;;;5053934;28;45543;-73
2021/12/08 15:18:13;;;;;;;;;1.25;1.25;;;;;;;;5052012;28;45347;-73
2021/12/08 15:20:39;;;;;;;;;1.50;0.25;;;;;;;;5052111;28;45541;-72
2021/12/08 15:23:13;;;;;;;;;2.50;0.50;;;;;;;;5052323;28;45399;-72
2021/12/08 15:25:42;;;;;;;;;1.25;1.00;;;;;;;;5036621;28;45525;-72
2021/12/08 15:28:09;;;;;;;;;1.75;1.75;;;;;;;;5050336;28;45607;-73
2021/12/08 15:30:34;;;;;;;;;2.25;1.25;;;;;;;;5051880;28;45477;-74
2021/12/08 15:33:01;;;;;;;;;2.75;2.75;;;;;;;;5052748;28;45531;-73
2021/12/08 15:35:26;;;;;;;;;4.50;3.25;;;;;;;;5031904;28;45617;-74
2021/12/08 15:37:52;;;;;;;;;1.00;1.00;;;;;;;;5050325;28;46124;-71
2021/12/08 15:40:22;;;;;;;;;2.75;1.00;;;;;;;;5053170;28;45360;-73
2021/12/08 15:42:53;;;;;;;;;3.75;3.00;;;;;;;;5052906;28;45396;-74
2021/12/08 15:45:20;;;;;;;;;2.00;2.00;;;;;;;;5052002;28;45451;-74
2021/12/08 15:47:45;;;;;;;;;3.00;3.00;;;;;;;;5050549;28;47131;-72
2021/12/08 15:50:21;;;;;;;;;1.25;1.00;;;;;;;;5051763;28;45461;-82
2021/12/08 15:52:51;;;;;;;;;5.00;2.00;;;;;;;;5037731;28;45377;-67
2021/12/08 15:55:16;;;;;;;;;9.00;6.00;;;;;;;;5053490;28;45410;-71
2021/12/08 15:57:42;;;;;;;;;4.25;3.25;;;;;;;;5053721;28;47137;-71
2021/12/08 16:00:07;;;;;;;;;1.50;1.00;;;;;;;;5052417;28;45431;-73
2021/12/08 16:02:32;;;;;;;;;3.25;3.00;;;;;;;;5033422;28;45481;-72
2021/12/08 16:05:00;;;;;;;;;2.75;2.75;;;;;;;;5052603;28;45495;-73
2021/12/08 16:07:27;;;;;;;;;7.75;4.50;;;;;;;;5053199;28;47202;-73
2021/12/08 16:09:52;;;;;;;;;3.00;1.00;;;;;;;;5054664;28;45294;-73
2021/12/08 16:12:18;;;;;;;;;3.75;2.75;;;;;;;;5050419;28;45293;-71
2021/12/08 16:14:57;;;;;;;;;2.00;2.00;;;;;;;;5051212;28;45318;-71
2021/12/08 16:17:23;;;;;;;;;1.00;1.00;;;;;;;;5050639;28;46296;-72
2021/12/08 16:19:49;;;;;;;;;3.00;1.00;;;;;;;;5050952;28;45507;-69
2021/12/08 16:22:15;;;;;;;;;2.50;2.50;;;;;;;;5053800;28;45272;-74
2021/12/08 16:24:44;;;;;;;;;1.25;1.25;;;;;;;;5052179;28;45362;-74
2021/12/08 16:27:14;;;;;;;;;2.75;2.75;;;;;;;;5032209;28;46080;-73
2021/12/08 16:29:40;;;;;;;;;1.00;1.00;;;;;;;;5051564;28;45463;-75
2021/12/08 16:32:07;;;;;;;;;2.00;2.00;;;;;;;;5051637;28;45361;-74
2021/12/08 16:34:32;;;;;;;;;1.25;1.25;;;;;;;;5051514;28;45579;-77